createdAt,value
2022-10-30T00:00:31.778Z,75.25
2022-10-30T00:01:31.846Z,75.15
2022-10-30T00:02:31.832Z,75.25
2022-10-30T00:03:31.745Z,75.25
2022-10-30T00:04:31.726Z,75.15
2022-10-30T00:05:31.747Z,75.25
2022-10-30T00:06:31.715Z,75.15
2022-10-30T00:07:31.722Z,75.15
2022-10-30T00:08:31.677Z,75.15
2022-10-30T00:09:31.662Z,75.15
2022-10-30T00:10:31.654Z,75.15
2022-10-30T00:11:31.645Z,75.15
2022-10-30T00:12:31.656Z,75.15
2022-10-30T00:13:31.607Z,75.25
2022-10-30T00:14:31.594Z,75.15
2022-10-30T00:15:31.583Z,75.15
2022-10-30T00:16:31.571Z,75.15
2022-10-30T00:17:31.557Z,75.15
2022-10-30T00:18:31.542Z,75.15
2022-10-30T00:19:31.533Z,75.15
2022-10-30T00:20:31.516Z,75.15
2022-10-30T00:21:31.506Z,75.15
2022-10-30T00:22:31.490Z,75.15
2022-10-30T00:23:31.480Z,75.15
2022-10-30T00:24:31.466Z,75.15
2022-10-30T00:25:31.453Z,75.15
2022-10-30T00:26:31.438Z,75.15
2022-10-30T00:27:31.426Z,75.15
2022-10-30T00:28:31.437Z,75.04
2022-10-30T00:29:31.402Z,75.15
2022-10-30T00:30:31.385Z,75.04
2022-10-30T00:31:31.376Z,75.04
2022-10-30T00:32:31.359Z,75.15
2022-10-30T00:33:31.348Z,75.15
2022-10-30T00:34:31.335Z,75.15
2022-10-30T00:35:31.481Z,75.04
2022-10-30T00:36:31.308Z,75.04
2022-10-30T00:37:31.296Z,75.15
2022-10-30T00:38:31.282Z,75.04
2022-10-30T00:39:31.272Z,75.15
2022-10-30T00:40:31.258Z,75.15
2022-10-30T00:41:31.245Z,75.15
2022-10-30T00:42:31.231Z,75.15
2022-10-30T00:43:31.224Z,75.15
2022-10-30T00:44:31.232Z,75.15
2022-10-30T00:45:31.196Z,75.04
2022-10-30T00:46:31.185Z,75.04
2022-10-30T00:47:31.169Z,75.04
2022-10-30T00:48:31.152Z,75.04
2022-10-30T00:49:31.143Z,75.04
2022-10-30T00:50:31.136Z,75.04
2022-10-30T00:51:31.114Z,75.04
2022-10-30T00:52:31.100Z,75.04
2022-10-30T00:53:31.092Z,75.04
2022-10-30T00:54:31.075Z,75.04
2022-10-30T00:55:31.063Z,75.04
2022-10-30T00:56:31.049Z,75.04
2022-10-30T00:57:31.038Z,75.15
2022-10-30T00:58:31.023Z,75.15
2022-10-30T00:59:31.013Z,75.15
2022-10-30T01:00:31.029Z,75.15
2022-10-30T01:01:31.156Z,75.15
2022-10-30T01:02:31.159Z,75.15
2022-10-30T01:03:30.959Z,75.25
2022-10-30T01:04:30.946Z,75.15
2022-10-30T01:05:30.933Z,75.25
2022-10-30T01:06:30.921Z,75.15
2022-10-30T01:07:30.910Z,75.15
2022-10-30T01:08:30.959Z,75.15
2022-10-30T01:09:30.881Z,75.15
2022-10-30T01:10:30.867Z,75.15
2022-10-30T01:12:05.809Z,75.15
2022-10-30T01:13:11.804Z,75.15
2022-10-30T01:14:05.788Z,75.15
2022-10-30T01:15:05.768Z,75.15
2022-10-30T01:16:11.784Z,75.15
2022-10-30T01:17:11.746Z,75.15
2022-10-30T01:18:11.735Z,75.15
2022-10-30T01:19:05.713Z,75.25
2022-10-30T01:20:05.704Z,75.25
2022-10-30T01:21:05.687Z,75.25
2022-10-30T01:22:05.676Z,75.35
2022-10-30T01:23:05.663Z,75.25
2022-10-30T01:24:05.651Z,75.25
2022-10-30T01:25:05.635Z,75.25
2022-10-30T01:26:05.623Z,75.25
2022-10-30T01:27:11.614Z,75.25
2022-10-30T01:28:05.596Z,75.25
2022-10-30T01:29:05.582Z,75.35
2022-10-30T01:30:05.572Z,75.25
2022-10-30T01:31:05.557Z,75.35
2022-10-30T01:32:05.568Z,75.25
2022-10-30T01:33:05.531Z,75.25
2022-10-30T01:34:05.518Z,75.15
2022-10-30T01:35:05.502Z,75.25
2022-10-30T01:36:05.492Z,75.25
2022-10-30T01:37:05.476Z,75.25
2022-10-30T01:38:05.466Z,75.25
2022-10-30T01:39:05.455Z,75.35
2022-10-30T01:40:05.438Z,75.25
2022-10-30T01:41:11.428Z,75.45
2022-10-30T01:42:05.414Z,75.45
2022-10-30T01:43:05.395Z,75.35
2022-10-30T01:44:05.387Z,75.25
2022-10-30T01:45:05.373Z,75.35
2022-10-30T01:46:05.359Z,75.35
2022-10-30T01:47:05.347Z,75.25
2022-10-30T01:48:05.354Z,75.25
2022-10-30T01:49:05.318Z,75.15
2022-10-30T01:50:05.304Z,75.15
2022-10-30T01:51:05.293Z,75.25
2022-10-30T01:52:11.287Z,75.25
2022-10-30T01:53:11.272Z,75.25
2022-10-30T01:54:11.255Z,75.25
2022-10-30T01:55:05.240Z,75.25
2022-10-30T01:56:05.225Z,75.25
2022-10-30T01:57:05.214Z,75.25
2022-10-30T01:58:05.202Z,75.25
2022-10-30T01:59:05.212Z,75.35
2022-10-30T02:00:05.173Z,75.25
2022-10-30T02:01:05.237Z,75.35
2022-10-30T02:02:11.289Z,75.35
2022-10-30T02:03:05.146Z,75.45
2022-10-30T02:04:05.148Z,75.25
2022-10-30T02:05:05.120Z,75.25
2022-10-30T02:06:05.090Z,75.35
2022-10-30T02:07:05.083Z,75.35
2022-10-30T02:08:05.068Z,75.25
2022-10-30T02:09:05.060Z,75.35
2022-10-30T02:10:05.042Z,75.35
2022-10-30T02:11:05.026Z,75.35
2022-10-30T02:12:05.014Z,75.35
2022-10-30T02:13:05.001Z,75.25
2022-10-30T02:14:04.987Z,75.25
2022-10-30T02:15:04.975Z,75.35
2022-10-30T02:16:04.967Z,75.35
2022-10-30T02:17:39.900Z,75.25
2022-10-30T02:19:39.897Z,75.35
2022-10-30T02:20:39.859Z,75.35
2022-10-30T02:21:39.847Z,75.35
2022-10-30T02:22:39.961Z,75.25
2022-10-30T02:23:39.821Z,75.35
2022-10-30T02:24:39.806Z,75.25
2022-10-30T02:25:39.798Z,75.35
2022-10-30T02:26:39.779Z,75.45
2022-10-30T02:27:39.769Z,75.45
2022-10-30T02:28:39.755Z,75.45
2022-10-30T02:29:39.742Z,75.45
2022-10-30T02:30:39.727Z,75.45
2022-10-30T02:31:39.717Z,75.55
2022-10-30T02:32:39.707Z,75.45
2022-10-30T02:33:39.698Z,75.55
2022-10-30T02:34:39.676Z,75.55
2022-10-30T02:35:39.690Z,75.76
2022-10-30T02:36:39.659Z,75.76
2022-10-30T02:37:39.640Z,75.76
2022-10-30T02:38:39.625Z,75.65
2022-10-30T02:39:39.613Z,75.65
2022-10-30T02:40:39.598Z,75.76
2022-10-30T02:41:39.590Z,75.65
2022-10-30T02:42:39.571Z,75.65
2022-10-30T02:43:39.560Z,75.55
2022-10-30T02:44:39.546Z,75.45
2022-10-30T02:45:39.539Z,75.45
2022-10-30T02:46:39.521Z,75.55
2022-10-30T02:47:39.509Z,75.35
2022-10-30T02:48:39.501Z,75.45
2022-10-30T02:49:39.482Z,75.35
2022-10-30T02:50:39.472Z,75.35
2022-10-30T02:51:39.486Z,75.35
2022-10-30T02:52:39.443Z,75.45
2022-10-30T02:53:39.430Z,75.35
2022-10-30T02:54:39.417Z,75.45
2022-10-30T02:55:39.405Z,75.35
2022-10-30T02:56:39.393Z,75.35
2022-10-30T02:57:39.377Z,75.35
2022-10-30T02:58:39.367Z,75.45
2022-10-30T02:59:39.353Z,75.35
2022-10-30T03:00:39.341Z,75.35
2022-10-30T03:01:39.480Z,75.25
2022-10-30T03:02:39.353Z,75.35
2022-10-30T03:03:39.303Z,75.35
2022-10-30T03:04:39.291Z,75.25
2022-10-30T03:05:39.275Z,75.25
2022-10-30T03:06:39.263Z,75.15
2022-10-30T03:07:39.273Z,75.25
2022-10-30T03:08:39.237Z,75.15
2022-10-30T03:09:39.221Z,75.15
2022-10-30T03:10:39.213Z,75.25
2022-10-30T03:11:39.200Z,75.25
2022-10-30T03:12:39.185Z,75.35
2022-10-30T03:13:39.171Z,75.35
2022-10-30T03:14:39.158Z,75.35
2022-10-30T03:15:39.144Z,75.35
2022-10-30T03:16:39.142Z,75.35
2022-10-30T03:17:39.119Z,75.25
2022-10-30T03:18:39.106Z,75.25
2022-10-30T03:19:39.093Z,75.15
2022-10-30T03:20:39.083Z,75.15
2022-10-30T03:21:39.067Z,75.25
2022-10-30T03:22:39.054Z,75.15
2022-10-30T03:23:39.064Z,75.15
2022-10-30T03:24:39.034Z,75.15
2022-10-30T03:25:39.015Z,75.15
2022-10-30T03:26:39.005Z,75.15
2022-10-30T03:27:38.987Z,75.15
2022-10-30T03:28:38.980Z,75.15
2022-10-30T03:29:38.966Z,75.15
2022-10-30T03:30:38.955Z,75.15
2022-10-30T03:31:38.936Z,75.15
2022-10-30T03:32:38.927Z,75.15
2022-10-30T03:33:38.910Z,75.15
2022-10-30T03:34:38.910Z,75.15
2022-10-30T03:35:38.888Z,75.15
2022-10-30T03:36:38.883Z,75.15
2022-10-30T03:37:38.858Z,75.04
2022-10-30T03:38:38.847Z,75.04
2022-10-30T03:39:38.858Z,75.15
2022-10-30T03:40:38.822Z,75.15
2022-10-30T03:41:38.806Z,75.15
2022-10-30T03:42:38.796Z,75.25
2022-10-30T03:43:38.779Z,75.25
2022-10-30T03:44:38.768Z,75.25
2022-10-30T03:45:38.757Z,75.25
2022-10-30T03:46:38.747Z,75.25
2022-10-30T03:47:38.727Z,75.25
2022-10-30T03:48:38.718Z,75.25
2022-10-30T03:49:38.705Z,75.15
2022-10-30T03:50:38.691Z,75.25
2022-10-30T03:51:38.678Z,75.15
2022-10-30T03:52:38.665Z,75.15
2022-10-30T03:53:38.650Z,75.15
2022-10-30T03:54:38.639Z,75.15
2022-10-30T03:55:38.649Z,75.25
2022-10-30T03:56:38.614Z,75.25
2022-10-30T03:57:38.600Z,75.25
2022-10-30T03:58:38.589Z,75.25
2022-10-30T03:59:38.585Z,75.25
2022-10-30T04:00:38.561Z,75.25
2022-10-30T04:01:38.874Z,75.25
2022-10-30T04:02:38.536Z,75.15
2022-10-30T04:03:38.521Z,75.15
2022-10-30T04:04:38.512Z,75.25
2022-10-30T04:05:38.494Z,75.25
2022-10-30T04:06:38.483Z,75.25
2022-10-30T04:07:38.469Z,75.25
2022-10-30T04:08:38.458Z,75.25
2022-10-30T04:09:38.443Z,75.25
2022-10-30T04:10:38.474Z,75.25
2022-10-30T04:11:38.442Z,75.15
2022-10-30T04:12:38.406Z,75.15
2022-10-30T04:13:38.390Z,75.25
2022-10-30T04:14:38.379Z,75.15
2022-10-30T04:15:38.367Z,75.15
2022-10-30T04:16:38.358Z,75.15
2022-10-30T04:17:38.341Z,75.15
2022-10-30T04:18:38.328Z,75.15
2022-10-30T04:19:38.313Z,75.15
2022-10-30T04:20:38.302Z,75.15
2022-10-30T04:21:38.287Z,75.15
2022-10-30T04:22:38.278Z,75.15
2022-10-30T04:23:38.261Z,75.15
2022-10-30T04:24:38.249Z,75.15
2022-10-30T04:25:38.235Z,75.15
2022-10-30T04:26:38.224Z,75.15
2022-10-30T04:27:38.235Z,75.15
2022-10-30T04:28:38.200Z,75.15
2022-10-30T04:29:38.182Z,75.15
2022-10-30T04:30:38.173Z,75.15
2022-10-30T04:31:38.156Z,75.15
2022-10-30T04:32:38.147Z,75.15
2022-10-30T04:33:38.131Z,75.15
2022-10-30T04:34:38.121Z,75.15
2022-10-30T04:35:38.103Z,75.15
2022-10-30T04:36:38.098Z,75.15
2022-10-30T04:37:38.079Z,75.15
2022-10-30T04:38:38.068Z,75.15
2022-10-30T04:39:41.023Z,75.15
2022-10-30T04:40:39.080Z,75.15
2022-10-30T04:41:38.026Z,75.15
2022-10-30T04:42:38.016Z,75.15
2022-10-30T04:43:38.025Z,75.15
2022-10-30T04:44:37.990Z,75.15
2022-10-30T04:45:37.980Z,75.15
2022-10-30T04:46:37.965Z,75.15
2022-10-30T04:47:37.951Z,75.15
2022-10-30T04:48:37.939Z,75.15
2022-10-30T04:49:37.922Z,75.15
2022-10-30T04:50:37.912Z,75.15
2022-10-30T04:51:37.905Z,75.15
2022-10-30T04:52:37.889Z,75.15
2022-10-30T04:53:37.871Z,75.15
2022-10-30T04:54:37.858Z,75.15
2022-10-30T04:55:37.846Z,75.15
2022-10-30T04:56:37.834Z,75.18
2022-10-30T04:57:37.820Z,75.15
2022-10-30T04:58:37.808Z,75.15
2022-10-30T04:59:37.820Z,75.15
2022-10-30T05:00:37.781Z,75.18
2022-10-30T05:01:37.851Z,75.15
2022-10-30T05:02:38.024Z,75.15
2022-10-30T05:03:37.744Z,75.15
2022-10-30T05:04:37.731Z,75.15
2022-10-30T05:05:37.726Z,75.15
2022-10-30T05:06:37.703Z,75.15
2022-10-30T05:07:37.689Z,75.15
2022-10-30T05:08:37.678Z,75.15
2022-10-30T05:09:37.662Z,75.15
2022-10-30T05:10:37.652Z,75.15
2022-10-30T05:11:37.640Z,75.15
2022-10-30T05:12:37.625Z,75.15
2022-10-30T05:13:37.610Z,75.18
2022-10-30T05:14:37.601Z,75.18
2022-10-30T05:15:37.608Z,75.18
2022-10-30T05:16:37.573Z,75.18
2022-10-30T05:17:37.561Z,75.18
2022-10-30T05:18:37.548Z,75.18
2022-10-30T05:19:37.542Z,75.18
2022-10-30T05:20:37.523Z,75.18
2022-10-30T05:21:37.515Z,75.18
2022-10-30T05:22:37.495Z,75.18
2022-10-30T05:23:37.480Z,75.18
2022-10-30T05:24:37.469Z,75.28
2022-10-30T05:25:37.550Z,75.28
2022-10-30T05:26:37.445Z,75.28
2022-10-30T05:27:37.431Z,75.28
2022-10-30T05:28:37.417Z,75.28
2022-10-30T05:29:37.405Z,75.28
2022-10-30T05:30:37.395Z,75.18
2022-10-30T05:31:37.401Z,75.18
2022-10-30T05:32:37.366Z,75.28
2022-10-30T05:33:37.356Z,75.18
2022-10-30T05:34:37.339Z,75.28
2022-10-30T05:35:37.324Z,75.28
2022-10-30T05:36:37.316Z,75.18
2022-10-30T05:37:37.300Z,75.18
2022-10-30T05:38:37.289Z,75.28
2022-10-30T05:39:37.284Z,75.18
2022-10-30T05:40:37.262Z,75.28
2022-10-30T05:41:37.347Z,75.18
2022-10-30T05:42:37.235Z,75.18
2022-10-30T05:43:37.221Z,75.18
2022-10-30T05:44:59.265Z,75.18
2022-10-30T05:45:38.234Z,75.28
2022-10-30T05:46:37.184Z,75.18
2022-10-30T05:47:37.193Z,75.18
2022-10-30T05:48:37.156Z,75.18
2022-10-30T05:49:37.143Z,75.18
2022-10-30T05:50:37.134Z,75.18
2022-10-30T05:51:39.757Z,75.18
2022-10-30T05:52:37.105Z,75.18
2022-10-30T05:53:37.100Z,75.18
2022-10-30T05:54:37.080Z,75.18
2022-10-30T05:55:37.065Z,75.18
2022-10-30T05:56:37.055Z,75.18
2022-10-30T05:57:37.039Z,75.18
2022-10-30T05:58:37.030Z,75.18
2022-10-30T05:59:37.014Z,75.18
2022-10-30T06:00:37.007Z,75.18
2022-10-30T06:01:37.106Z,75.18
2022-10-30T06:02:37.030Z,75.18
2022-10-30T06:03:36.984Z,75.18
2022-10-30T06:04:36.950Z,75.18
2022-10-30T06:05:36.933Z,75.18
2022-10-30T06:06:36.924Z,75.18
2022-10-30T06:07:36.911Z,75.18
2022-10-30T06:08:36.906Z,75.18
2022-10-30T06:09:36.895Z,75.18
2022-10-30T06:10:36.871Z,75.18
2022-10-30T06:11:36.856Z,75.18
2022-10-30T06:12:36.847Z,75.18
2022-10-30T06:13:36.832Z,75.18
2022-10-30T06:14:36.821Z,75.18
2022-10-30T06:15:36.805Z,75.18
2022-10-30T06:16:36.796Z,75.18
2022-10-30T06:17:36.780Z,75.28
2022-10-30T06:18:36.769Z,75.28
2022-10-30T06:19:36.779Z,75.18
2022-10-30T06:20:36.744Z,75.18
2022-10-30T06:21:36.731Z,75.18
2022-10-30T06:22:36.719Z,75.28
2022-10-30T06:23:36.705Z,75.28
2022-10-30T06:24:36.694Z,75.28
2022-10-30T06:25:41.028Z,75.18
2022-10-30T06:26:36.666Z,75.18
2022-10-30T06:27:36.650Z,75.18
2022-10-30T06:28:36.640Z,75.18
2022-10-30T06:29:36.624Z,75.18
2022-10-30T06:30:36.620Z,75.18
2022-10-30T06:31:36.597Z,75.18
2022-10-30T06:32:36.602Z,75.18
2022-10-30T06:33:36.573Z,75.18
2022-10-30T06:34:36.574Z,75.18
2022-10-30T06:35:36.570Z,75.18
2022-10-30T06:36:36.589Z,75.18
2022-10-30T06:37:36.519Z,75.28
2022-10-30T06:38:36.509Z,75.28
2022-10-30T06:39:36.495Z,75.18
2022-10-30T06:40:36.483Z,75.18
2022-10-30T06:41:36.468Z,75.18
2022-10-30T06:42:36.458Z,75.18
2022-10-30T06:43:36.444Z,75.18
2022-10-30T06:44:36.431Z,75.18
2022-10-30T06:45:36.416Z,75.18
2022-10-30T06:46:36.407Z,75.18
2022-10-30T06:47:36.392Z,75.18
2022-10-30T06:48:36.382Z,75.18
2022-10-30T06:49:36.365Z,75.18
2022-10-30T06:50:36.355Z,75.18
2022-10-30T06:51:36.364Z,75.18
2022-10-30T06:52:36.327Z,75.18
2022-10-30T06:53:36.314Z,75.18
2022-10-30T06:54:36.303Z,75.18
2022-10-30T06:55:36.288Z,75.18
2022-10-30T06:56:36.274Z,75.18
2022-10-30T06:57:36.262Z,75.18
2022-10-30T06:58:36.248Z,75.18
2022-10-30T06:59:36.235Z,75.08
2022-10-30T07:00:36.297Z,75.18
2022-10-30T07:01:36.239Z,75.08
2022-10-30T07:02:36.197Z,75.08
2022-10-30T07:03:36.189Z,75.08
2022-10-30T07:04:36.171Z,75.18
2022-10-30T07:05:36.156Z,75.08
2022-10-30T07:06:36.144Z,75.08
2022-10-30T07:07:36.154Z,75.08
2022-10-30T07:08:36.119Z,75.08
2022-10-30T07:09:36.105Z,75.08
2022-10-30T07:10:36.092Z,75.08
2022-10-30T07:11:36.080Z,75.08
2022-10-30T07:12:36.065Z,75.08
2022-10-30T07:13:36.053Z,75.18
2022-10-30T07:14:36.038Z,75.08
2022-10-30T07:15:36.132Z,75.18
2022-10-30T07:16:36.015Z,75.18
2022-10-30T07:17:36.002Z,75.18
2022-10-30T07:18:35.986Z,75.18
2022-10-30T07:19:35.974Z,75.18
2022-10-30T07:20:35.960Z,75.18
2022-10-30T07:21:35.962Z,75.18
2022-10-30T07:22:35.934Z,75.18
2022-10-30T07:23:35.947Z,75.18
2022-10-30T07:24:35.908Z,75.18
2022-10-30T07:25:35.896Z,75.18
2022-10-30T07:26:35.882Z,75.18
2022-10-30T07:27:35.872Z,75.18
2022-10-30T07:28:35.856Z,75.18
2022-10-30T07:29:35.843Z,75.18
2022-10-30T07:30:35.840Z,75.18
2022-10-30T07:31:42.620Z,75.18
2022-10-30T07:32:36.843Z,75.18
2022-10-30T07:33:35.793Z,75.18
2022-10-30T07:34:35.779Z,75.18
2022-10-30T07:35:35.767Z,75.08
2022-10-30T07:36:35.751Z,75.08
2022-10-30T07:37:35.739Z,75.08
2022-10-30T07:38:35.723Z,75.08
2022-10-30T07:39:35.740Z,75.08
2022-10-30T07:40:35.699Z,75.18
2022-10-30T07:41:35.688Z,75.18
2022-10-30T07:42:35.673Z,75.18
2022-10-30T07:43:35.663Z,75.18
2022-10-30T07:44:35.649Z,75.08
2022-10-30T07:45:35.652Z,75.08
2022-10-30T07:46:35.622Z,75.08
2022-10-30T07:47:35.609Z,75.08
2022-10-30T07:48:35.596Z,75.08
2022-10-30T07:49:35.583Z,75.08
2022-10-30T07:50:35.570Z,75.08
2022-10-30T07:51:35.557Z,75.04
2022-10-30T07:52:35.546Z,74.98
2022-10-30T07:53:35.532Z,74.98
2022-10-30T07:54:35.518Z,74.95
2022-10-30T07:55:35.529Z,74.95
2022-10-30T07:56:35.495Z,74.95
2022-10-30T07:57:35.479Z,74.95
2022-10-30T07:58:35.467Z,75.04
2022-10-30T07:59:35.489Z,75.04
2022-10-30T08:00:35.438Z,75.04
2022-10-30T08:01:35.568Z,75.04
2022-10-30T08:02:35.599Z,75.15
2022-10-30T08:03:35.407Z,75.15
2022-10-30T08:04:35.387Z,74.95
2022-10-30T08:05:35.376Z,75.04
2022-10-30T08:06:35.361Z,75.04
2022-10-30T08:07:35.352Z,75.04
2022-10-30T08:08:39.097Z,75.15
2022-10-30T08:09:36.363Z,75.04
2022-10-30T08:10:35.415Z,75.15
2022-10-30T08:11:35.323Z,75.65
2022-10-30T08:12:35.286Z,75.45
2022-10-30T08:13:35.272Z,75.35
2022-10-30T08:14:35.257Z,75.35
2022-10-30T08:15:35.250Z,75.76
2022-10-30T08:16:35.233Z,75.45
2022-10-30T08:17:35.221Z,75.65
2022-10-30T08:18:35.208Z,75.65
2022-10-30T08:19:35.196Z,75.25
2022-10-30T08:20:35.222Z,75.25
2022-10-30T08:21:35.168Z,75.25
2022-10-30T08:22:35.156Z,75.15
2022-10-30T08:23:35.144Z,75.15
2022-10-30T08:24:35.129Z,75.35
2022-10-30T08:25:35.116Z,75.15
2022-10-30T08:26:35.102Z,75.15
2022-10-30T08:27:35.113Z,75.35
2022-10-30T08:28:35.075Z,74.95
2022-10-30T08:29:35.063Z,75.04
2022-10-30T08:30:35.050Z,75.04
2022-10-30T08:31:35.037Z,74.95
2022-10-30T08:32:35.025Z,75.04
2022-10-30T08:33:35.011Z,74.95
2022-10-30T08:34:34.998Z,74.84
2022-10-30T08:36:34.974Z,74.95
2022-10-30T08:37:34.960Z,75.04
2022-10-30T08:38:34.947Z,75.04
2022-10-30T08:39:34.933Z,75.15
2022-10-30T08:40:34.919Z,75.04
2022-10-30T08:41:34.909Z,74.95
2022-10-30T08:42:34.893Z,75.25
2022-10-30T08:43:34.906Z,75.15
2022-10-30T08:44:34.872Z,75.04
2022-10-30T08:45:34.862Z,74.95
2022-10-30T08:46:34.844Z,74.84
2022-10-30T08:47:34.831Z,74.74
2022-10-30T08:48:34.817Z,74.95
2022-10-30T08:49:34.818Z,74.84
2022-10-30T08:50:34.790Z,74.74
2022-10-30T08:51:34.781Z,74.84
2022-10-30T08:52:34.763Z,74.74
2022-10-30T08:53:34.751Z,74.74
2022-10-30T08:54:34.737Z,74.74
2022-10-30T08:55:34.727Z,74.74
2022-10-30T08:56:34.714Z,74.74
2022-10-30T08:57:34.700Z,74.74
2022-10-30T08:58:34.688Z,74.74
2022-10-30T08:59:34.697Z,74.74
2022-10-30T09:00:34.662Z,74.74
2022-10-30T09:01:34.758Z,74.84
2022-10-30T09:02:34.781Z,74.74
2022-10-30T09:03:34.622Z,74.95
2022-10-30T09:04:34.619Z,74.95
2022-10-30T09:05:34.596Z,74.84
2022-10-30T09:06:34.582Z,74.74
2022-10-30T09:07:34.570Z,74.74
2022-10-30T09:08:34.554Z,74.74
2022-10-30T09:09:34.544Z,74.64
2022-10-30T09:10:34.534Z,74.64
2022-10-30T09:11:34.516Z,74.64
2022-10-30T09:12:34.506Z,74.64
2022-10-30T09:13:34.492Z,74.64
2022-10-30T09:14:34.478Z,74.64
2022-10-30T09:15:34.491Z,74.64
2022-10-30T09:16:34.451Z,74.64
2022-10-30T09:17:34.440Z,74.64
2022-10-30T09:18:34.425Z,74.64
2022-10-30T09:19:34.470Z,74.64
2022-10-30T09:20:34.399Z,74.74
2022-10-30T09:21:34.393Z,74.74
2022-10-30T09:22:34.387Z,74.64
2022-10-30T09:23:34.362Z,74.60
2022-10-30T09:24:34.345Z,74.64
2022-10-30T09:25:34.334Z,74.64
2022-10-30T09:26:34.333Z,74.64
2022-10-30T09:27:34.311Z,74.64
2022-10-30T09:28:34.300Z,74.64
2022-10-30T09:29:34.283Z,74.64
2022-10-30T09:30:34.269Z,74.64
2022-10-30T09:31:34.281Z,74.64
2022-10-30T09:32:34.241Z,74.60
2022-10-30T09:33:34.229Z,74.60
2022-10-30T09:34:34.216Z,74.60
2022-10-30T09:35:34.205Z,74.64
2022-10-30T09:36:34.192Z,74.60
2022-10-30T09:37:34.179Z,74.64
2022-10-30T09:38:34.165Z,74.64
2022-10-30T09:39:34.155Z,74.64
2022-10-30T09:40:34.139Z,74.64
2022-10-30T09:41:34.128Z,74.60
2022-10-30T09:42:34.121Z,74.60
2022-10-30T09:43:34.101Z,74.64
2022-10-30T09:44:34.088Z,74.64
2022-10-30T09:45:34.075Z,74.50
2022-10-30T09:46:34.063Z,74.50
2022-10-30T09:47:34.081Z,74.50
2022-10-30T09:48:34.034Z,74.54
2022-10-30T09:49:34.021Z,74.50
2022-10-30T09:50:37.182Z,74.50
2022-10-30T09:51:33.996Z,74.50
2022-10-30T09:52:33.982Z,74.50
2022-10-30T09:53:33.972Z,74.40
2022-10-30T09:54:33.957Z,74.54
2022-10-30T09:55:33.945Z,74.40
2022-10-30T09:56:33.933Z,74.40
2022-10-30T09:57:39.925Z,74.40
2022-10-30T09:58:33.904Z,74.40
2022-10-30T09:59:33.896Z,74.40
2022-10-30T10:00:33.878Z,74.40
2022-10-30T10:01:33.981Z,74.40
2022-10-30T10:02:34.214Z,74.40
2022-10-30T10:03:33.869Z,74.30
2022-10-30T10:04:33.830Z,74.40
2022-10-30T10:05:33.815Z,74.40
2022-10-30T10:06:33.801Z,74.40
2022-10-30T10:07:33.813Z,74.40
2022-10-30T10:08:33.774Z,74.30
2022-10-30T10:09:33.797Z,74.30
2022-10-30T10:10:33.747Z,74.30
2022-10-30T10:11:33.737Z,74.30
2022-10-30T10:12:33.725Z,74.30
2022-10-30T10:13:33.710Z,74.20
2022-10-30T10:14:33.696Z,74.20
2022-10-30T10:15:33.685Z,74.20
2022-10-30T10:16:33.668Z,74.30
2022-10-30T10:17:33.663Z,74.20
2022-10-30T10:18:33.651Z,74.20
2022-10-30T10:19:33.663Z,74.20
2022-10-30T10:20:33.617Z,74.20
2022-10-30T10:21:33.604Z,74.10
2022-10-30T10:22:33.589Z,74.10
2022-10-30T10:23:33.581Z,74.20
2022-10-30T10:24:33.566Z,74.20
2022-10-30T10:25:33.552Z,74.10
2022-10-30T10:26:33.537Z,74.10
2022-10-30T10:27:33.526Z,74.10
2022-10-30T10:28:36.668Z,74.10
2022-10-30T10:29:33.502Z,74.10
2022-10-30T10:30:33.487Z,74.10
2022-10-30T10:31:33.475Z,74.10
2022-10-30T10:32:33.460Z,74.10
2022-10-30T10:33:33.449Z,74.10
2022-10-30T10:34:33.435Z,74.10
2022-10-30T10:35:33.448Z,73.99
2022-10-30T10:36:33.408Z,73.99
2022-10-30T10:37:33.399Z,73.99
2022-10-30T10:38:33.381Z,73.99
2022-10-30T10:39:33.369Z,73.99
2022-10-30T10:40:33.357Z,73.99
2022-10-30T10:41:33.345Z,73.99
2022-10-30T10:42:33.328Z,73.99
2022-10-30T10:43:33.318Z,73.99
2022-10-30T10:44:33.303Z,73.99
2022-10-30T10:45:33.293Z,73.99
2022-10-30T10:46:33.277Z,73.99
2022-10-30T10:47:33.265Z,73.90
2022-10-30T10:48:33.252Z,73.99
2022-10-30T10:49:35.834Z,73.90
2022-10-30T10:50:33.226Z,73.90
2022-10-30T10:51:33.237Z,73.90
2022-10-30T10:52:33.198Z,73.90
2022-10-30T10:53:33.213Z,73.90
2022-10-30T10:54:33.175Z,73.90
2022-10-30T10:55:33.162Z,73.90
2022-10-30T10:56:33.148Z,73.90
2022-10-30T10:57:33.136Z,73.90
2022-10-30T10:58:33.122Z,73.90
2022-10-30T10:59:33.109Z,73.90
2022-10-30T11:00:33.095Z,73.79
2022-10-30T11:01:33.167Z,73.79
2022-10-30T11:02:33.251Z,73.79
2022-10-30T11:03:33.060Z,73.79
2022-10-30T11:04:33.043Z,73.79
2022-10-30T11:05:33.038Z,73.90
2022-10-30T11:06:33.016Z,73.90
2022-10-30T11:07:33.038Z,73.90
2022-10-30T11:08:32.996Z,73.90
2022-10-30T11:09:32.980Z,73.79
2022-10-30T11:10:32.965Z,73.79
2022-10-30T11:11:32.954Z,73.79
2022-10-30T11:12:35.454Z,73.79
2022-10-30T11:13:32.935Z,73.76
2022-10-30T11:14:32.914Z,73.79
2022-10-30T11:15:32.902Z,73.79
2022-10-30T11:16:32.891Z,73.76
2022-10-30T11:17:32.876Z,73.86
2022-10-30T11:18:32.863Z,73.79
2022-10-30T11:19:32.851Z,73.79
2022-10-30T11:20:32.835Z,73.86
2022-10-30T11:21:32.826Z,73.90
2022-10-30T11:22:32.817Z,73.76
2022-10-30T11:23:32.823Z,73.76
2022-10-30T11:24:32.789Z,73.76
2022-10-30T11:25:32.769Z,73.86
2022-10-30T11:26:32.768Z,73.86
2022-10-30T11:27:32.745Z,73.86
2022-10-30T11:28:32.733Z,73.86
2022-10-30T11:29:32.718Z,73.86
2022-10-30T11:30:32.707Z,73.86
2022-10-30T11:31:32.691Z,73.86
2022-10-30T11:32:32.757Z,73.86
2022-10-30T11:33:32.666Z,73.86
2022-10-30T11:34:32.656Z,73.86
2022-10-30T11:35:32.639Z,73.86
2022-10-30T11:36:32.629Z,73.76
2022-10-30T11:37:32.619Z,73.86
2022-10-30T11:38:32.601Z,73.86
2022-10-30T11:39:32.614Z,73.76
2022-10-30T11:40:32.575Z,73.76
2022-10-30T11:41:32.572Z,73.76
2022-10-30T11:42:32.549Z,73.76
2022-10-30T11:43:32.535Z,73.76
2022-10-30T11:44:32.532Z,73.86
2022-10-30T11:45:32.508Z,73.86
2022-10-30T11:46:32.498Z,73.86
2022-10-30T11:47:32.525Z,73.86
2022-10-30T11:48:32.470Z,73.76
2022-10-30T11:49:32.457Z,73.76
2022-10-30T11:50:32.446Z,73.86
2022-10-30T11:51:32.444Z,73.76
2022-10-30T11:52:32.423Z,73.76
2022-10-30T11:53:32.402Z,73.86
2022-10-30T11:54:32.393Z,73.86
2022-10-30T11:55:32.406Z,73.76
2022-10-30T11:56:32.373Z,73.86
2022-10-30T11:57:32.354Z,73.86
2022-10-30T11:58:32.344Z,73.76
2022-10-30T11:59:32.329Z,73.86
2022-10-30T12:00:32.318Z,73.76
2022-10-30T12:01:32.373Z,73.76
2022-10-30T12:02:32.388Z,73.86
2022-10-30T12:03:32.277Z,73.86
2022-10-30T12:04:32.266Z,73.86
2022-10-30T12:05:32.250Z,73.86
2022-10-30T12:06:38.247Z,73.86
2022-10-30T12:07:32.223Z,73.76
2022-10-30T12:08:32.211Z,73.76
2022-10-30T12:09:32.200Z,73.76
2022-10-30T12:10:32.190Z,73.76
2022-10-30T12:11:32.195Z,73.76
2022-10-30T12:12:32.159Z,73.76
2022-10-30T12:13:32.147Z,73.86
2022-10-30T12:14:32.135Z,73.76
2022-10-30T12:15:32.119Z,73.76
2022-10-30T12:16:32.111Z,73.76
2022-10-30T12:17:32.092Z,73.76
2022-10-30T12:18:32.087Z,73.76
2022-10-30T12:19:32.065Z,73.76
2022-10-30T12:20:32.054Z,73.76
2022-10-30T12:21:32.039Z,73.76
2022-10-30T12:22:32.041Z,73.76
2022-10-30T12:23:32.012Z,73.76
2022-10-30T12:24:32.003Z,73.66
2022-10-30T12:25:31.986Z,73.66
2022-10-30T12:26:31.975Z,73.66
2022-10-30T12:27:31.983Z,73.66
2022-10-30T12:28:32.053Z,73.66
2022-10-30T12:29:47.941Z,73.66
2022-10-30T12:30:32.960Z,73.55
2022-10-30T12:31:31.911Z,73.76
2022-10-30T12:32:34.543Z,73.66
2022-10-30T12:33:32.920Z,73.66
2022-10-30T12:34:31.878Z,73.55
2022-10-30T12:35:31.858Z,73.66
2022-10-30T12:37:02.847Z,73.66
2022-10-30T12:38:03.063Z,73.66
2022-10-30T12:39:02.821Z,73.66
2022-10-30T12:40:02.803Z,73.55
2022-10-30T12:41:02.792Z,73.55
2022-10-30T12:42:08.782Z,73.66
2022-10-30T12:43:02.795Z,73.66
2022-10-30T12:44:02.755Z,73.55
2022-10-30T12:45:02.742Z,73.66
2022-10-30T12:46:02.729Z,73.66
2022-10-30T12:47:02.717Z,73.66
2022-10-30T12:48:03.105Z,73.66
2022-10-30T12:49:08.699Z,73.55
2022-10-30T12:50:02.747Z,73.55
2022-10-30T12:51:02.668Z,73.66
2022-10-30T12:52:02.649Z,73.55
2022-10-30T12:53:02.721Z,73.55
2022-10-30T12:54:02.625Z,73.55
2022-10-30T12:55:02.660Z,73.55
2022-10-30T12:56:02.604Z,73.66